sensor_id;sensor_type;location;lat;lon;timestamp;pressure;altitude;pressure_sealevel;temperature;humidity
25944;BME280;13742;49.306;8.636;2022-07-23T00:00:17;100288.80;;;26.46;53.21
25944;BME280;13742;49.306;8.636;2022-07-23T00:01:17;100287.61;;;26.47;53.26
25944;BME280;13742;49.306;8.636;2022-07-23T00:02:17;100288.55;;;26.47;53.24
25944;BME280;13742;49.306;8.636;2022-07-23T00:03:17;100286.69;;;26.47;53.07
25944;BME280;13742;49.306;8.636;2022-07-23T00:04:17;100285.16;;;26.47;53.26
25944;BME280;13742;49.306;8.636;2022-07-23T00:05:17;100287.10;;;26.47;53.17
25944;BME280;13742;49.306;8.636;2022-07-23T00:06:17;100283.38;;;26.47;52.96
25944;BME280;13742;49.306;8.636;2022-07-23T00:07:17;100285.98;;;26.46;52.99
25944;BME280;13742;49.306;8.636;2022-07-23T00:08:17;100280.89;;;26.45;52.81
25944;BME280;13742;49.306;8.636;2022-07-23T00:09:17;100280.22;;;26.45;53.10
25944;BME280;13742;49.306;8.636;2022-07-23T00:10:17;100281.14;;;26.45;53.34
25944;BME280;13742;49.306;8.636;2022-07-23T00:11:17;100279.42;;;26.43;53.11
25944;BME280;13742;49.306;8.636;2022-07-23T00:12:17;100283.03;;;26.42;53.30
25944;BME280;13742;49.306;8.636;2022-07-23T00:13:17;100284.91;;;26.41;53.96
25944;BME280;13742;49.306;8.636;2022-07-23T00:14:17;100285.73;;;26.39;54.43
25944;BME280;13742;49.306;8.636;2022-07-23T00:15:17;100285.82;;;26.35;54.73
25944;BME280;13742;49.306;8.636;2022-07-23T00:16:17;100286.94;;;26.28;54.73
25944;BME280;13742;49.306;8.636;2022-07-23T00:17:17;100285.31;;;26.27;54.25
25944;BME280;13742;49.306;8.636;2022-07-23T00:18:17;100288.36;;;26.28;54.12
25944;BME280;13742;49.306;8.636;2022-07-23T00:19:17;100287.68;;;26.28;53.79
25944;BME280;13742;49.306;8.636;2022-07-23T00:20:17;100285.48;;;26.28;54.02
25944;BME280;13742;49.306;8.636;2022-07-23T00:21:17;100288.02;;;26.27;53.81
25944;BME280;13742;49.306;8.636;2022-07-23T00:22:17;100285.98;;;26.27;53.88
25944;BME280;13742;49.306;8.636;2022-07-23T00:23:17;100284.03;;;26.27;53.58
25944;BME280;13742;49.306;8.636;2022-07-23T00:24:17;100286.08;;;26.27;53.69
25944;BME280;13742;49.306;8.636;2022-07-23T00:25:17;100287.61;;;26.27;53.53
25944;BME280;13742;49.306;8.636;2022-07-23T00:26:17;100287.66;;;26.27;53.49
25944;BME280;13742;49.306;8.636;2022-07-23T00:27:17;100290.29;;;26.26;53.80
25944;BME280;13742;49.306;8.636;2022-07-23T00:28:18;100297.98;;;26.26;53.65
25944;BME280;13742;49.306;8.636;2022-07-23T00:29:17;100304.26;;;26.27;54.22
25944;BME280;13742;49.306;8.636;2022-07-23T00:30:17;100305.40;;;26.24;54.87
25944;BME280;13742;49.306;8.636;2022-07-23T00:31:17;100304.89;;;26.23;55.06
25944;BME280;13742;49.306;8.636;2022-07-23T00:32:17;100307.58;;;26.20;55.28
25944;BME280;13742;49.306;8.636;2022-07-23T00:33:17;100308.73;;;26.20;55.27
25944;BME280;13742;49.306;8.636;2022-07-23T00:34:17;100315.56;;;26.17;55.41
25944;BME280;13742;49.306;8.636;2022-07-23T00:35:19;100319.17;;;26.09;55.55
25944;BME280;13742;49.306;8.636;2022-07-23T00:36:17;100321.11;;;26.03;56.14
25944;BME280;13742;49.306;8.636;2022-07-23T00:37:17;100322.34;;;26.00;56.33
25944;BME280;13742;49.306;8.636;2022-07-23T00:38:17;100326.96;;;25.98;56.18
25944;BME280;13742;49.306;8.636;2022-07-23T00:39:17;100325.72;;;25.87;57.26
25944;BME280;13742;49.306;8.636;2022-07-23T00:40:17;100319.91;;;25.83;57.00
25944;BME280;13742;49.306;8.636;2022-07-23T00:41:17;100316.73;;;25.73;57.42
25944;BME280;13742;49.306;8.636;2022-07-23T00:42:17;100314.20;;;25.68;57.53
25944;BME280;13742;49.306;8.636;2022-07-23T00:43:19;100314.52;;;25.66;57.10
25944;BME280;13742;49.306;8.636;2022-07-23T00:44:21;100312.13;;;25.65;57.22
25944;BME280;13742;49.306;8.636;2022-07-23T00:45:17;100309.88;;;25.61;57.63
25944;BME280;13742;49.306;8.636;2022-07-23T00:46:20;100310.98;;;25.42;58.21
25944;BME280;13742;49.306;8.636;2022-07-23T00:47:17;100308.97;;;25.38;58.50
25944;BME280;13742;49.306;8.636;2022-07-23T00:48:17;100308.80;;;25.38;58.44
25944;BME280;13742;49.306;8.636;2022-07-23T00:49:17;100306.49;;;25.36;58.52
25944;BME280;13742;49.306;8.636;2022-07-23T00:50:17;100306.45;;;25.23;58.66
25944;BME280;13742;49.306;8.636;2022-07-23T00:51:17;100311.30;;;25.09;59.08
25944;BME280;13742;49.306;8.636;2022-07-23T00:52:17;100304.80;;;25.00;59.32
25944;BME280;13742;49.306;8.636;2022-07-23T00:53:17;100308.95;;;24.79;59.88
25944;BME280;13742;49.306;8.636;2022-07-23T00:54:17;100303.43;;;24.85;59.87
25944;BME280;13742;49.306;8.636;2022-07-23T00:55:17;100298.25;;;24.88;59.45
25944;BME280;13742;49.306;8.636;2022-07-23T00:56:17;100303.02;;;24.78;59.87
25944;BME280;13742;49.306;8.636;2022-07-23T00:57:17;100303.04;;;24.69;60.22
25944;BME280;13742;49.306;8.636;2022-07-23T00:58:17;100304.08;;;24.58;60.54
25944;BME280;13742;49.306;8.636;2022-07-23T00:59:17;100305.59;;;24.54;60.74
25944;BME280;13742;49.306;8.636;2022-07-23T01:00:17;100301.11;;;24.53;60.79
25944;BME280;13742;49.306;8.636;2022-07-23T01:01:17;100301.40;;;24.51;60.95
25944;BME280;13742;49.306;8.636;2022-07-23T01:02:17;100297.34;;;24.36;61.14
25944;BME280;13742;49.306;8.636;2022-07-23T01:03:17;100297.58;;;24.39;61.06
25944;BME280;13742;49.306;8.636;2022-07-23T01:04:17;100294.91;;;24.36;61.14
25944;BME280;13742;49.306;8.636;2022-07-23T01:05:21;100291.35;;;24.40;60.76
25944;BME280;13742;49.306;8.636;2022-07-23T01:06:17;100291.84;;;24.44;60.56
25944;BME280;13742;49.306;8.636;2022-07-23T01:07:17;100293.90;;;24.52;59.97
25944;BME280;13742;49.306;8.636;2022-07-23T01:08:17;100295.14;;;24.55;60.10
25944;BME280;13742;49.306;8.636;2022-07-23T01:09:17;100296.09;;;24.60;59.74
25944;BME280;13742;49.306;8.636;2022-07-23T01:10:22;100300.03;;;24.55;59.80
25944;BME280;13742;49.306;8.636;2022-07-23T01:11:17;100303.36;;;24.48;59.95
25944;BME280;13742;49.306;8.636;2022-07-23T01:12:17;100305.41;;;24.49;59.66
25944;BME280;13742;49.306;8.636;2022-07-23T01:13:17;100309.26;;;24.55;59.63
25944;BME280;13742;49.306;8.636;2022-07-23T01:14:18;100309.75;;;24.59;59.78
25944;BME280;13742;49.306;8.636;2022-07-23T01:15:17;100311.85;;;24.58;59.83
25944;BME280;13742;49.306;8.636;2022-07-23T01:16:17;100313.19;;;24.62;59.60
25944;BME280;13742;49.306;8.636;2022-07-23T01:17:17;100309.27;;;24.68;59.11
25944;BME280;13742;49.306;8.636;2022-07-23T01:18:17;100309.36;;;24.68;58.80
25944;BME280;13742;49.306;8.636;2022-07-23T01:19:17;100319.58;;;24.72;58.83
25944;BME280;13742;49.306;8.636;2022-07-23T01:20:17;100319.72;;;24.72;59.45
25944;BME280;13742;49.306;8.636;2022-07-23T01:21:17;100322.59;;;24.64;59.67
25944;BME280;13742;49.306;8.636;2022-07-23T01:22:18;100322.08;;;24.59;59.82
25944;BME280;13742;49.306;8.636;2022-07-23T01:23:17;100321.40;;;24.51;59.90
25944;BME280;13742;49.306;8.636;2022-07-23T01:24:19;100320.85;;;24.57;59.67
25944;BME280;13742;49.306;8.636;2022-07-23T01:25:17;100321.50;;;24.64;58.94
25944;BME280;13742;49.306;8.636;2022-07-23T01:26:17;100318.63;;;24.67;58.73
25944;BME280;13742;49.306;8.636;2022-07-23T01:27:19;100322.28;;;24.69;58.57
25944;BME280;13742;49.306;8.636;2022-07-23T01:28:17;100325.88;;;24.71;58.23
25944;BME280;13742;49.306;8.636;2022-07-23T01:29:18;100322.47;;;24.71;58.75
25944;BME280;13742;49.306;8.636;2022-07-23T01:30:17;100320.42;;;24.72;58.60
25944;BME280;13742;49.306;8.636;2022-07-23T01:31:17;100314.23;;;24.73;58.29
25944;BME280;13742;49.306;8.636;2022-07-23T01:32:17;100304.63;;;24.74;58.62
25944;BME280;13742;49.306;8.636;2022-07-23T01:33:17;100300.28;;;24.75;58.37
25944;BME280;13742;49.306;8.636;2022-07-23T01:34:17;100295.75;;;24.76;58.25
25944;BME280;13742;49.306;8.636;2022-07-23T01:35:17;100293.27;;;24.75;58.01
25944;BME280;13742;49.306;8.636;2022-07-23T01:36:17;100293.27;;;24.74;58.16
25944;BME280;13742;49.306;8.636;2022-07-23T01:37:17;100292.17;;;24.58;58.73
25944;BME280;13742;49.306;8.636;2022-07-23T01:38:17;100292.44;;;24.55;59.05
25944;BME280;13742;49.306;8.636;2022-07-23T01:39:17;100292.67;;;24.53;59.10
25944;BME280;13742;49.306;8.636;2022-07-23T01:40:17;100288.64;;;24.54;58.90
25944;BME280;13742;49.306;8.636;2022-07-23T01:41:17;100283.34;;;24.56;58.78
25944;BME280;13742;49.306;8.636;2022-07-23T01:42:17;100282.83;;;24.59;58.35
25944;BME280;13742;49.306;8.636;2022-07-23T01:43:17;100287.76;;;24.62;58.03
25944;BME280;13742;49.306;8.636;2022-07-23T01:44:17;100286.52;;;24.63;57.78
25944;BME280;13742;49.306;8.636;2022-07-23T01:45:17;100294.19;;;24.66;58.20
25944;BME280;13742;49.306;8.636;2022-07-23T01:46:17;100295.13;;;24.66;58.58
25944;BME280;13742;49.306;8.636;2022-07-23T01:47:17;100301.40;;;24.67;58.41
25944;BME280;13742;49.306;8.636;2022-07-23T01:48:17;100303.38;;;24.69;58.13
25944;BME280;13742;49.306;8.636;2022-07-23T01:49:17;100301.17;;;24.69;57.97
25944;BME280;13742;49.306;8.636;2022-07-23T01:50:17;100304.38;;;24.70;57.87
25944;BME280;13742;49.306;8.636;2022-07-23T01:51:17;100304.91;;;24.71;57.95
25944;BME280;13742;49.306;8.636;2022-07-23T01:52:17;100306.19;;;24.71;57.90
25944;BME280;13742;49.306;8.636;2022-07-23T01:53:17;100300.97;;;24.71;57.79
25944;BME280;13742;49.306;8.636;2022-07-23T01:54:17;100302.73;;;24.72;57.79
25944;BME280;13742;49.306;8.636;2022-07-23T01:55:17;100305.56;;;24.72;57.72
25944;BME280;13742;49.306;8.636;2022-07-23T01:56:18;100310.45;;;24.70;58.18
25944;BME280;13742;49.306;8.636;2022-07-23T01:57:17;100311.31;;;24.69;58.14
25944;BME280;13742;49.306;8.636;2022-07-23T01:58:17;100311.30;;;24.65;58.24
25944;BME280;13742;49.306;8.636;2022-07-23T01:59:17;100305.20;;;24.64;57.95
25944;BME280;13742;49.306;8.636;2022-07-23T02:00:17;100301.23;;;24.59;58.30
25944;BME280;13742;49.306;8.636;2022-07-23T02:01:18;100296.11;;;24.48;58.54
25944;BME280;13742;49.306;8.636;2022-07-23T02:02:17;100294.37;;;24.47;58.46
25944;BME280;13742;49.306;8.636;2022-07-23T02:03:17;100293.67;;;24.49;57.91
25944;BME280;13742;49.306;8.636;2022-07-23T02:04:17;100289.22;;;24.50;57.81
25944;BME280;13742;49.306;8.636;2022-07-23T02:05:17;100283.44;;;24.46;58.18
25944;BME280;13742;49.306;8.636;2022-07-23T02:06:17;100283.59;;;24.12;58.53
25944;BME280;13742;49.306;8.636;2022-07-23T02:07:17;100280.75;;;24.22;58.33
25944;BME280;13742;49.306;8.636;2022-07-23T02:08:17;100283.52;;;24.14;58.42
25944;BME280;13742;49.306;8.636;2022-07-23T02:09:17;100283.05;;;24.22;58.10
25944;BME280;13742;49.306;8.636;2022-07-23T02:10:17;100293.53;;;24.01;58.90
25944;BME280;13742;49.306;8.636;2022-07-23T02:11:17;100292.78;;;23.89;58.93
25944;BME280;13742;49.306;8.636;2022-07-23T02:12:17;100293.05;;;23.98;58.81
25944;BME280;13742;49.306;8.636;2022-07-23T02:13:17;100291.50;;;23.92;58.96
25944;BME280;13742;49.306;8.636;2022-07-23T02:14:17;100296.44;;;23.91;59.07
25944;BME280;13742;49.306;8.636;2022-07-23T02:15:17;100299.17;;;23.85;59.35
25944;BME280;13742;49.306;8.636;2022-07-23T02:16:17;100303.50;;;23.79;59.46
25944;BME280;13742;49.306;8.636;2022-07-23T02:17:17;100304.36;;;23.74;59.65
25944;BME280;13742;49.306;8.636;2022-07-23T02:18:17;100308.41;;;23.88;59.00
25944;BME280;13742;49.306;8.636;2022-07-23T02:19:17;100308.92;;;23.91;58.76
25944;BME280;13742;49.306;8.636;2022-07-23T02:20:17;100314.34;;;23.92;58.75
25944;BME280;13742;49.306;8.636;2022-07-23T02:21:17;100321.94;;;23.95;58.78
25944;BME280;13742;49.306;8.636;2022-07-23T02:22:17;100320.52;;;23.96;58.49
25944;BME280;13742;49.306;8.636;2022-07-23T02:23:17;100320.75;;;23.96;58.39
25944;BME280;13742;49.306;8.636;2022-07-23T02:24:17;100324.63;;;23.96;58.35
25944;BME280;13742;49.306;8.636;2022-07-23T02:25:17;100327.05;;;23.97;58.02
25944;BME280;13742;49.306;8.636;2022-07-23T02:26:17;100330.31;;;24.01;58.18
25944;BME280;13742;49.306;8.636;2022-07-23T02:27:17;100337.55;;;24.03;58.14
25944;BME280;13742;49.306;8.636;2022-07-23T02:28:17;100338.17;;;24.05;57.80
25944;BME280;13742;49.306;8.636;2022-07-23T02:29:17;100339.47;;;24.07;57.73
25944;BME280;13742;49.306;8.636;2022-07-23T02:30:17;100344.48;;;24.08;57.81
25944;BME280;13742;49.306;8.636;2022-07-23T02:31:17;100349.11;;;24.07;57.74
25944;BME280;13742;49.306;8.636;2022-07-23T02:32:17;100351.98;;;24.07;58.20
25944;BME280;13742;49.306;8.636;2022-07-23T02:33:17;100357.50;;;24.09;57.74
25944;BME280;13742;49.306;8.636;2022-07-23T02:34:17;100359.33;;;24.11;57.81
25944;BME280;13742;49.306;8.636;2022-07-23T02:35:17;100356.97;;;24.12;58.18
25944;BME280;13742;49.306;8.636;2022-07-23T02:36:17;100356.56;;;24.12;58.08
25944;BME280;13742;49.306;8.636;2022-07-23T02:37:17;100356.77;;;24.11;58.18
25944;BME280;13742;49.306;8.636;2022-07-23T02:38:17;100354.34;;;24.07;58.59
25944;BME280;13742;49.306;8.636;2022-07-23T02:39:17;100353.91;;;24.07;58.49
25944;BME280;13742;49.306;8.636;2022-07-23T02:40:17;100353.28;;;24.02;58.20
25944;BME280;13742;49.306;8.636;2022-07-23T02:41:17;100351.14;;;24.04;58.26
25944;BME280;13742;49.306;8.636;2022-07-23T02:42:17;100351.42;;;23.87;58.60
25944;BME280;13742;49.306;8.636;2022-07-23T02:43:17;100351.42;;;23.87;59.00
25944;BME280;13742;49.306;8.636;2022-07-23T02:44:17;100353.33;;;23.89;58.79
25944;BME280;13742;49.306;8.636;2022-07-23T02:45:17;100351.79;;;23.92;58.75
25944;BME280;13742;49.306;8.636;2022-07-23T02:46:17;100353.48;;;23.92;58.58
25944;BME280;13742;49.306;8.636;2022-07-23T02:47:17;100352.05;;;23.88;58.97
25944;BME280;13742;49.306;8.636;2022-07-23T02:48:17;100355.11;;;23.83;59.18
25944;BME280;13742;49.306;8.636;2022-07-23T02:49:17;100354.06;;;23.76;59.24
25944;BME280;13742;49.306;8.636;2022-07-23T02:50:17;100352.02;;;23.81;58.90
25944;BME280;13742;49.306;8.636;2022-07-23T02:51:17;100353.66;;;23.83;58.82
25944;BME280;13742;49.306;8.636;2022-07-23T02:52:17;100353.25;;;23.83;58.48
25944;BME280;13742;49.306;8.636;2022-07-23T02:53:17;100354.53;;;23.84;58.90
25944;BME280;13742;49.306;8.636;2022-07-23T02:54:17;100362.72;;;23.68;59.26
25944;BME280;13742;49.306;8.636;2022-07-23T02:55:17;100362.25;;;23.63;59.66
25944;BME280;13742;49.306;8.636;2022-07-23T02:56:17;100367.16;;;23.57;59.99
25944;BME280;13742;49.306;8.636;2022-07-23T02:57:17;100370.56;;;23.65;59.42
25944;BME280;13742;49.306;8.636;2022-07-23T02:58:17;100373.91;;;23.60;59.91
25944;BME280;13742;49.306;8.636;2022-07-23T02:59:17;100374.25;;;23.64;59.51
25944;BME280;13742;49.306;8.636;2022-07-23T03:00:17;100373.84;;;23.64;59.65
25944;BME280;13742;49.306;8.636;2022-07-23T03:01:17;100382.11;;;23.55;60.03
25944;BME280;13742;49.306;8.636;2022-07-23T03:02:17;100391.56;;;23.27;61.10
25944;BME280;13742;49.306;8.636;2022-07-23T03:03:17;100390.64;;;23.23;61.24
25944;BME280;13742;49.306;8.636;2022-07-23T03:04:17;100384.59;;;23.24;61.46
25944;BME280;13742;49.306;8.636;2022-07-23T03:05:17;100376.95;;;23.28;61.41
25944;BME280;13742;49.306;8.636;2022-07-23T03:06:17;100376.58;;;23.29;61.27
25944;BME280;13742;49.306;8.636;2022-07-23T03:07:17;100379.27;;;23.14;62.25
25944;BME280;13742;49.306;8.636;2022-07-23T03:08:17;100379.01;;;23.17;62.12
25944;BME280;13742;49.306;8.636;2022-07-23T03:09:17;100378.11;;;23.09;62.01
25944;BME280;13742;49.306;8.636;2022-07-23T03:10:17;100380.52;;;23.00;62.28
25944;BME280;13742;49.306;8.636;2022-07-23T03:11:17;100378.41;;;22.97;62.62
25944;BME280;13742;49.306;8.636;2022-07-23T03:12:17;100375.66;;;22.88;62.29
25944;BME280;13742;49.306;8.636;2022-07-23T03:13:17;100377.17;;;23.00;62.08
25944;BME280;13742;49.306;8.636;2022-07-23T03:14:17;100379.38;;;22.92;62.27
25944;BME280;13742;49.306;8.636;2022-07-23T03:15:17;100382.09;;;22.87;62.33
25944;BME280;13742;49.306;8.636;2022-07-23T03:16:17;100382.28;;;22.90;62.14
25944;BME280;13742;49.306;8.636;2022-07-23T03:17:17;100380.11;;;23.00;61.69
25944;BME280;13742;49.306;8.636;2022-07-23T03:18:17;100378.25;;;22.94;61.67
25944;BME280;13742;49.306;8.636;2022-07-23T03:19:17;100379.34;;;23.04;61.47
25944;BME280;13742;49.306;8.636;2022-07-23T03:20:17;100378.02;;;23.07;61.34
25944;BME280;13742;49.306;8.636;2022-07-23T03:21:17;100377.63;;;22.99;61.50
25944;BME280;13742;49.306;8.636;2022-07-23T03:22:17;100383.84;;;22.95;61.82
25944;BME280;13742;49.306;8.636;2022-07-23T03:23:17;100384.00;;;22.89;62.01
25944;BME280;13742;49.306;8.636;2022-07-23T03:24:20;100386.83;;;22.90;61.99
25944;BME280;13742;49.306;8.636;2022-07-23T03:25:17;100381.16;;;22.92;62.05
25944;BME280;13742;49.306;8.636;2022-07-23T03:26:17;100388.40;;;22.92;61.87
25944;BME280;13742;49.306;8.636;2022-07-23T03:27:17;100388.66;;;23.02;61.23
25944;BME280;13742;49.306;8.636;2022-07-23T03:28:17;100388.02;;;23.08;61.23
25944;BME280;13742;49.306;8.636;2022-07-23T03:29:17;100386.28;;;23.04;61.32
25944;BME280;13742;49.306;8.636;2022-07-23T03:30:17;100388.11;;;23.11;61.16
25944;BME280;13742;49.306;8.636;2022-07-23T03:31:17;100393.83;;;23.05;61.22
25944;BME280;13742;49.306;8.636;2022-07-23T03:32:17;100388.27;;;23.11;61.17
25944;BME280;13742;49.306;8.636;2022-07-23T03:33:18;100389.72;;;23.18;60.63
25944;BME280;13742;49.306;8.636;2022-07-23T03:34:18;100392.08;;;23.12;61.14
25944;BME280;13742;49.306;8.636;2022-07-23T03:35:17;100398.78;;;22.90;61.78
25944;BME280;13742;49.306;8.636;2022-07-23T03:36:17;100406.80;;;22.82;62.18
25944;BME280;13742;49.306;8.636;2022-07-23T03:37:17;100406.30;;;22.79;62.36
25944;BME280;13742;49.306;8.636;2022-07-23T03:38:17;100402.59;;;22.79;62.19
25944;BME280;13742;49.306;8.636;2022-07-23T03:39:17;100395.77;;;22.85;62.01
25944;BME280;13742;49.306;8.636;2022-07-23T03:40:17;100395.64;;;22.83;62.21
25944;BME280;13742;49.306;8.636;2022-07-23T03:41:17;100396.23;;;22.78;62.44
25944;BME280;13742;49.306;8.636;2022-07-23T03:42:17;100393.39;;;22.81;62.30
25944;BME280;13742;49.306;8.636;2022-07-23T03:43:17;100392.41;;;22.85;62.49
25944;BME280;13742;49.306;8.636;2022-07-23T03:44:17;100390.84;;;22.80;62.75
25944;BME280;13742;49.306;8.636;2022-07-23T03:45:17;100389.14;;;22.83;62.46
25944;BME280;13742;49.306;8.636;2022-07-23T03:46:17;100387.41;;;22.79;62.56
25944;BME280;13742;49.306;8.636;2022-07-23T03:47:17;100386.19;;;22.71;62.88
25944;BME280;13742;49.306;8.636;2022-07-23T03:48:17;100379.97;;;22.78;62.66
25944;BME280;13742;49.306;8.636;2022-07-23T03:49:17;100379.48;;;22.81;62.62
25944;BME280;13742;49.306;8.636;2022-07-23T03:50:17;100376.05;;;22.81;62.56
25944;BME280;13742;49.306;8.636;2022-07-23T03:51:17;100376.87;;;22.78;62.76
25944;BME280;13742;49.306;8.636;2022-07-23T03:52:17;100374.58;;;22.78;62.60
25944;BME280;13742;49.306;8.636;2022-07-23T03:53:17;100376.11;;;22.64;62.96
25944;BME280;13742;49.306;8.636;2022-07-23T03:54:17;100369.88;;;22.66;62.92
25944;BME280;13742;49.306;8.636;2022-07-23T03:55:17;100361.27;;;22.65;62.91
25944;BME280;13742;49.306;8.636;2022-07-23T03:56:17;100359.03;;;22.69;62.55
25944;BME280;13742;49.306;8.636;2022-07-23T03:57:17;100356.94;;;22.61;63.11
25944;BME280;13742;49.306;8.636;2022-07-23T03:58:17;100359.62;;;22.64;62.90
25944;BME280;13742;49.306;8.636;2022-07-23T03:59:17;100366.70;;;22.69;62.73
25944;BME280;13742;49.306;8.636;2022-07-23T04:00:17;100373.22;;;22.54;63.20
25944;BME280;13742;49.306;8.636;2022-07-23T04:01:17;100378.79;;;22.60;63.10
25944;BME280;13742;49.306;8.636;2022-07-23T04:02:17;100378.80;;;22.58;63.07
25944;BME280;13742;49.306;8.636;2022-07-23T04:03:17;100385.65;;;22.51;63.25
25944;BME280;13742;49.306;8.636;2022-07-23T04:04:17;100389.61;;;22.44;63.34
25944;BME280;13742;49.306;8.636;2022-07-23T04:05:17;100393.08;;;22.54;63.05
25944;BME280;13742;49.306;8.636;2022-07-23T04:06:17;100398.59;;;22.58;62.89
25944;BME280;13742;49.306;8.636;2022-07-23T04:07:21;100408.66;;;22.54;63.12
25944;BME280;13742;49.306;8.636;2022-07-23T04:08:17;100415.11;;;22.59;62.91
25944;BME280;13742;49.306;8.636;2022-07-23T04:09:17;100421.86;;;22.54;63.13
25944;BME280;13742;49.306;8.636;2022-07-23T04:10:17;100442.34;;;22.66;62.84
25944;BME280;13742;49.306;8.636;2022-07-23T04:11:17;100451.73;;;22.65;62.78
25944;BME280;13742;49.306;8.636;2022-07-23T04:12:17;100457.53;;;22.59;63.07
25944;BME280;13742;49.306;8.636;2022-07-23T04:13:17;100461.39;;;22.67;62.66
25944;BME280;13742;49.306;8.636;2022-07-23T04:14:17;100461.92;;;22.70;62.35
25944;BME280;13742;49.306;8.636;2022-07-23T04:15:17;100467.38;;;22.69;62.67
25944;BME280;13742;49.306;8.636;2022-07-23T04:16:17;100458.27;;;22.75;62.46
25944;BME280;13742;49.306;8.636;2022-07-23T04:17:17;100458.97;;;22.78;62.33
25944;BME280;13742;49.306;8.636;2022-07-23T04:18:17;100468.27;;;22.79;62.69
25944;BME280;13742;49.306;8.636;2022-07-23T04:19:17;100472.27;;;22.67;63.59
25944;BME280;13742;49.306;8.636;2022-07-23T04:20:17;100466.73;;;22.75;63.60
25944;BME280;13742;49.306;8.636;2022-07-23T04:21:17;100459.99;;;22.73;64.62
25944;BME280;13742;49.306;8.636;2022-07-23T04:22:17;100457.05;;;22.79;64.72
25944;BME280;13742;49.306;8.636;2022-07-23T04:23:17;100460.22;;;22.78;64.86
25944;BME280;13742;49.306;8.636;2022-07-23T04:24:17;100465.27;;;22.64;66.19
25944;BME280;13742;49.306;8.636;2022-07-23T04:25:17;100458.02;;;22.52;68.26
25944;BME280;13742;49.306;8.636;2022-07-23T04:26:17;100451.67;;;22.60;68.30
25944;BME280;13742;49.306;8.636;2022-07-23T04:27:17;100446.71;;;22.68;69.56
25944;BME280;13742;49.306;8.636;2022-07-23T04:28:17;100439.48;;;22.74;68.69
25944;BME280;13742;49.306;8.636;2022-07-23T04:29:17;100430.76;;;22.76;68.04
25944;BME280;13742;49.306;8.636;2022-07-23T04:30:17;100435.56;;;22.79;69.76
25944;BME280;13742;49.306;8.636;2022-07-23T04:31:17;100445.22;;;22.71;70.09
25944;BME280;13742;49.306;8.636;2022-07-23T04:32:17;100446.30;;;22.57;72.15
25944;BME280;13742;49.306;8.636;2022-07-23T04:33:17;100446.34;;;22.69;71.06
25944;BME280;13742;49.306;8.636;2022-07-23T04:34:17;100445.88;;;22.75;71.36
25944;BME280;13742;49.306;8.636;2022-07-23T04:35:17;100448.50;;;22.78;69.94
25944;BME280;13742;49.306;8.636;2022-07-23T04:36:17;100451.29;;;22.80;70.01
25944;BME280;13742;49.306;8.636;2022-07-23T04:37:17;100453.10;;;22.82;69.24
25944;BME280;13742;49.306;8.636;2022-07-23T04:38:17;100452.92;;;22.85;69.54
25944;BME280;13742;49.306;8.636;2022-07-23T04:39:17;100455.48;;;22.86;71.52
25944;BME280;13742;49.306;8.636;2022-07-23T04:40:17;100446.55;;;22.88;71.95
25944;BME280;13742;49.306;8.636;2022-07-23T04:41:17;100443.64;;;22.90;70.53
25944;BME280;13742;49.306;8.636;2022-07-23T04:42:17;100440.80;;;22.87;73.15
25944;BME280;13742;49.306;8.636;2022-07-23T04:43:17;100447.39;;;22.76;72.79
25944;BME280;13742;49.306;8.636;2022-07-23T04:44:17;100450.88;;;22.69;73.72
25944;BME280;13742;49.306;8.636;2022-07-23T04:45:17;100451.20;;;22.56;74.61
25944;BME280;13742;49.306;8.636;2022-07-23T04:46:17;100453.03;;;22.58;74.71
25944;BME280;13742;49.306;8.636;2022-07-23T04:47:17;100458.60;;;22.64;72.33
25944;BME280;13742;49.306;8.636;2022-07-23T04:48:17;100469.31;;;22.35;73.22
25944;BME280;13742;49.306;8.636;2022-07-23T04:49:17;100478.41;;;22.12;74.32
25944;BME280;13742;49.306;8.636;2022-07-23T04:50:21;100480.05;;;22.20;74.03
25944;BME280;13742;49.306;8.636;2022-07-23T04:51:17;100478.17;;;22.28;72.98
25944;BME280;13742;49.306;8.636;2022-07-23T04:52:17;100479.41;;;22.23;74.91
25944;BME280;13742;49.306;8.636;2022-07-23T04:53:18;100493.47;;;22.03;76.85
25944;BME280;13742;49.306;8.636;2022-07-23T04:54:17;100495.45;;;22.12;75.27
25944;BME280;13742;49.306;8.636;2022-07-23T04:55:17;100489.94;;;22.10;76.35
25944;BME280;13742;49.306;8.636;2022-07-23T04:56:17;100491.91;;;22.00;77.71
25944;BME280;13742;49.306;8.636;2022-07-23T04:57:17;100495.21;;;22.00;77.14
25944;BME280;13742;49.306;8.636;2022-07-23T04:58:17;100498.69;;;21.88;79.50
25944;BME280;13742;49.306;8.636;2022-07-23T04:59:17;100505.93;;;21.94;79.06
25944;BME280;13742;49.306;8.636;2022-07-23T05:00:17;100511.63;;;21.96;79.05
25944;BME280;13742;49.306;8.636;2022-07-23T05:01:17;100516.84;;;21.69;79.48
25944;BME280;13742;49.306;8.636;2022-07-23T05:02:17;100520.95;;;21.73;79.44
25944;BME280;13742;49.306;8.636;2022-07-23T05:03:17;100520.13;;;21.76;80.14
25944;BME280;13742;49.306;8.636;2022-07-23T05:04:17;100528.75;;;21.73;79.83
25944;BME280;13742;49.306;8.636;2022-07-23T05:05:17;100529.05;;;21.72;80.08
25944;BME280;13742;49.306;8.636;2022-07-23T05:06:17;100526.67;;;21.74;79.48
25944;BME280;13742;49.306;8.636;2022-07-23T05:07:17;100523.00;;;21.84;79.15
25944;BME280;13742;49.306;8.636;2022-07-23T05:08:17;100523.25;;;21.93;79.94
25944;BME280;13742;49.306;8.636;2022-07-23T05:09:17;100520.57;;;21.99;78.65
25944;BME280;13742;49.306;8.636;2022-07-23T05:10:17;100517.55;;;22.01;78.97
25944;BME280;13742;49.306;8.636;2022-07-23T05:11:17;100512.64;;;22.03;79.15
25944;BME280;13742;49.306;8.636;2022-07-23T05:12:17;100513.59;;;21.94;80.02
25944;BME280;13742;49.306;8.636;2022-07-23T05:13:17;100508.02;;;21.91;80.28